Airport ICAO


11:54 UTC

24°C

Clear skies


An affordable passengers' Moving Map for your aircraft. Made for the iPad and the iPhone
More information here

LFOB Tille


Beauvais FRANCE   VFR CAVOK


METAR LFOB 191130Z AUTO 11004KT 070V220 CAVOK 24/14 Q1024 NOSIG 0h24min

TAF LFOB 191100Z 1912/2012 VRB03KT CAVOK 0h54min





NOTAMS

OPEN